London Airport
CYXU : now visible

Airfield :











YOU CAN JOIN US ON...

 
LOGIN :

Register | Disclaimer

   EN    FR    IT 

 









Legend :    VFR   Marginal VFR   IFR   Intensive IFR   Very Intensive IFR
Visi :
Ceiling :
>= 8 km
>= 3000ft
5 to 8 km
1000 to 3000 ft
1500m to 5 km
500 to 1000 ft
800 to 1500m
200 to 500 ft
< 800m
< 200 ft
Symbols :   Thunderstorms  Fog  Heavy snow  Heavy precipitations  Wind > 20 kt







- Airport Elevation : 912 ft
- IATA code : YXU


CYXU - London

CURRENT METAR :
  • 181900Z VRB06KT 15SM FEW025 FEW160 BKN280 28/22 A2993 RMK CF1AC1CI5 SLP133 DENSITY ALT 2700FT

EXPIRED METARs :
  • 181800Z 18009KT 170V250 15SM FEW025 FEW170 SCT280 28/22 A2995 RMK CU1AC1CI4 CU TR AC TR SLP139 DENSITY ALT 2600FT
  • 181700Z 22007KT 12SM FEW020 BKN280 26/22 A2996 RMK SC2CI5 SLP142 DENSITY ALT 2400FT

TAF TAF CYXU
Valid from the 18 at 18:00 until the 19 at 18:00 UTC


181742Z 1818/1918 21010KT P6SM SCT015
FM182000 20012KT P6SM SCT040
FM190000 17010KT P6SM FEW040
BECMG 1905/1907 21008KT
FM191000 23012KT P6SM SCT050
TEMPO 1910/1913 P6SM -SHRA BKN050
BECMG 1915/1917 24012G22KT RMK NXT FCST BY 190000Z
CZYZ FIR / North America



MET'MAP, your aeronautical weather chart ! - Copyright ORBIFLY December 2007 - Disclaimer

ORBIFLY MET'MAP TEAM :

Programming & Development : Alexandra Zaïnal
Concept & Development : Baudouin d'Aumeries
Co-Development & Prog : Marc-Olivier Méhu
Technical & hardware support : Manuel Goepfert

Contact : metmap@orbifly.com




SOURCES & CREDITS :

   NOAA       Earth
Advisory